Latest Weather Observations for Yulara

IDD60801

Issued at 2:41 pm CST Friday 16 November 2018 (issued every 10 minutes, with the page automatically refreshed every 10 minutes)

About weather observations | Map of weather stations | Latest weather observations for NT | Other Formats
Station Details ID: 015635 Name: YULARA AIRPORT Lat: -25.19 Lon: 130.97 Height: 492.0 m
Data from the previous 72 hours. | See also: Recent months at Yulara
Date/Time
CST
Temp
°C
App
Temp
°C
Dew
Point
°C
Rel
Hum
%
Delta-T
°C
Wind Press
QNH
hPa
Press
MSL
hPa
Rain since
9am
mm
Dir  Spd
km/h
Gust
km/h
Spd
kts
Gust
kts
16/02:30pm 26.8 22.1 13.2 43 8.1 NE 30 39 16 21 1019.0 1015.8 0.2
16/02:00pm 25.5 21.4 13.7 48 7.1 NE 28 35 15 19 1019.4 1016.2 0.2
16/01:30pm 24.8 22.0 14.3 52 6.3 NE 22 30 12 16 1019.9 1016.8 0.2
16/01:00pm 25.0 21.7 13.9 50 6.7 NE 24 32 13 17 1020.1 1017.0 0.2
16/12:30pm 24.9 23.3 15.0 54 6.0 NE 17 20 9 11 1020.3 1017.2 0.2
16/12:00pm 24.4 23.4 15.6 58 5.4 N 15 22 8 12 1020.7 1017.6 0.2
16/11:30am 24.7 22.8 13.0 48 6.9 NE 15 22 8 12 1020.7 1017.6 0.2
16/11:00am 24.0 23.5 13.8 53 6.1 NE 9 11 5 6 1020.7 1017.6 0.2
16/10:30am 23.9 23.2 14.3 55 5.8 NE 11 13 6 7 1020.4 1017.3 0.2
16/10:00am 23.1 22.7 15.2 61 4.8 NE 11 13 6 7 1020.4 1017.3 0.2
16/09:30am 22.9 23.6 16.2 66 4.1 N 7 9 4 5 1020.7 1017.6 0.2
16/09:00am 24.2 23.2 12.2 47 7.0 N 9 13 5 7 1020.8 1017.7 0.0
16/08:30am 23.9 24.0 15.4 59 5.2 WNW 9 11 5 6 1020.7 1017.6 0.0
16/08:00am 23.7 24.4 15.5 60 5.0 SSW 6 7 3 4 1020.3 1017.2 0.0
16/07:30am 24.1 23.6 13.9 53 6.1 SE 9 13 5 7 1019.6 1016.5 0.0
16/07:00am 22.3 22.6 16.1 68 3.8 SW 9 11 5 6 1019.5 1016.3 0.0
16/06:30am 23.1 22.8 14.4 58 5.2 SW 9 11 5 6 1019.4 1016.2 0.0
16/06:00am 23.9 23.6 13.2 51 6.3 WSW 7 9 4 5 1019.1 1015.9 0.0
16/05:30am 24.2 23.9 13.4 51 6.4 W 7 13 4 7 1018.0 1014.9 0.0
16/05:00am 24.4 23.3 12.0 46 7.2 WSW 9 9 5 5 1017.4 1014.2 0.0
16/04:30am 24.4 24.2 13.0 49 6.7 WSW 6 6 3 3 1016.8 1013.6 0.0
16/04:00am 25.1 23.5 12.7 46 7.3 ESE 13 19 7 10 1016.3 1013.2 0.0
16/03:30am 25.1 25.3 14.6 52 6.4 ENE 7 11 4 6 1016.6 1013.5 0.0
16/03:00am 25.1 25.0 13.3 48 7.0 SSW 6 6 3 3 1017.1 1013.9 0.0
16/02:30am 25.0 24.7 14.5 52 6.4 NW 9 13 5 7 1017.3 1014.1 0.0
16/02:00am 25.6 24.4 14.1 49 7.0 ESE 13 17 7 9 1016.2 1013.1 0.0
16/01:30am 25.1 24.7 15.1 53 6.1 SE 11 17 6 9 1016.3 1013.2 0.0
16/01:00am 25.0 24.3 15.3 55 6.0 S 13 17 7 9 1016.6 1013.5 0.0
16/12:30am 25.1 23.6 15.4 55 6.0 S 17 22 9 12 1016.9 1013.7 0.0
16/12:00am 24.9 24.5 16.3 59 5.4 SSE 13 19 7 10 1017.5 1014.3 0.0
 
Date/Time
CST
Temp
°C
App
Temp
°C
Dew
Point
°C
Rel
Hum
%
Delta-T
°C
Wind Press
QNH
hPa
Press
MSL
hPa
Rain since
9am
mm
Dir  Spd
km/h
Gust
km/h
Spd
kts
Gust
kts
15/11:30pm 24.8 26.7 16.8 61 5.0 NNW 2 7 1 4 1018.0 1014.9 0.0
15/11:00pm 24.2 22.9 16.7 63 4.7 NW 19 24 10 13 1018.4 1015.3 0.0
15/10:30pm 23.8 19.5 16.8 65 4.4 WNW 35 50 19 27 1018.6 1015.5 0.0
15/10:05pm 25.6 21.4 15.6 54 6.2 WNW 32 54 17 29 1018.5 1015.4 0.0
15/10:00pm 26.7 22.3 15.1 49 7.2 NW 32 56 17 30 1018.3 1015.2 0.0
15/09:53pm 28.3 26.0 13.0 39 9.2 NNE 17 56 9 30 1017.9 1014.8 0.0
15/09:30pm 31.2 27.5 10.0 27 12.3 ESE 20 32 11 17 1016.3 1013.2 0.0
15/09:00pm 31.5 27.8 10.2 27 12.4 ESE 20 28 11 15 1015.7 1012.5 0.0
15/08:30pm 31.8 28.6 9.9 26 12.7 ESE 17 24 9 13 1015.8 1012.6 0.0
15/08:00pm 32.2 29.5 10.3 26 12.8 ESE 15 20 8 11 1015.3 1012.1 0.0
15/07:30pm 32.9 29.4 10.3 25 13.3 ESE 19 24 10 13 1015.0 1011.8 0.0
15/07:00pm 33.5 29.4 10.2 24 13.7 ESE 22 32 12 17 1014.7 1011.5 0.0
15/06:30pm 34.2 30.1 10.1 23 14.2 ESE 22 35 12 19 1014.1 1011.0 0.0
15/06:00pm 34.6 30.6 9.1 21 14.8 ESE 20 32 11 17 1014.1 1011.0 0.0
15/05:30pm 34.9 30.6 9.3 21 14.9 SE 22 32 12 17 1014.2 1011.1 0.0
15/05:00pm 35.6 31.8 9.2 20 15.4 ESE 19 32 10 17 1014.3 1011.2 0.0
15/04:30pm 35.3 31.7 9.7 21 15.1 ESE 19 32 10 17 1014.7 1011.5 0.0
15/04:00pm 36.3 32.7 9.8 20 15.7 E 19 33 10 18 1014.9 1011.7 0.0
15/03:30pm 35.5 30.9 9.8 21 15.1 ESE 24 37 13 20 1014.9 1011.7 0.0
15/03:00pm 35.2 31.3 9.6 21 15.0 E 20 32 11 17 1015.3 1012.1 0.0
15/02:30pm 35.4 31.6 9.7 21 15.1 ESE 20 41 11 22 1015.7 1012.5 0.0
15/02:00pm 34.5 29.2 9.7 22 14.5 E 28 37 15 20 1016.3 1013.2 0.0
15/01:30pm 35.1 30.3 10.2 22 14.7 E 26 35 14 19 1016.8 1013.6 0.0
15/01:00pm 34.5 29.7 10.4 23 14.3 E 26 37 14 20 1017.3 1014.1 0.0
15/12:30pm 32.8 28.2 9.6 24 13.5 E 24 39 13 21 1017.9 1014.8 0.0
15/12:00pm 32.4 27.3 9.2 24 13.4 E 26 37 14 20 1018.3 1015.2 0.0
15/11:32am 32.0 25.8 9.5 25 13.0 E 32 50 17 27 1018.8 1015.7 0.0
15/11:30am 31.0 24.4 8.7 25 12.6 E 33 50 18 27 1019.0 1015.8 0.0
15/11:15am 31.9 26.5 9.4 25 13.0 E 28 46 15 25 1019.0 1015.8 0.0
15/11:00am 31.2 25.0 9.4 26 12.5 E 32 44 17 24 1019.3 1016.1 0.0
15/10:40am 31.2 25.5 8.2 24 13.0 E 28 46 15 25 1019.6 1016.5 0.0
15/10:30am 30.3 24.5 8.1 25 12.4 ESE 28 41 15 22 1019.6 1016.5 0.0
15/10:00am 29.8 23.3 8.2 26 12.1 E 32 46 17 25 1019.7 1016.6 0.0
15/09:30am 29.1 22.5 7.7 26 11.8 E 32 43 17 23 1019.8 1016.7 0.0
15/09:00am 28.2 22.4 6.3 25 11.8 ESE 26 33 14 18 1019.7 1016.6 0.0
15/08:30am 27.8 21.3 6.6 26 11.4 ESE 30 43 16 23 1019.5 1016.3 0.0
15/08:00am 26.8 20.6 6.2 27 11.0 ESE 28 39 15 21 1019.5 1016.3 0.0
15/07:30am 25.5 19.3 6.2 29 10.2 ESE 28 39 15 21 1019.3 1016.1 0.0
15/07:00am 24.4 18.3 6.6 32 9.4 ESE 28 39 15 21 1018.8 1015.7 0.0
15/06:30am 23.9 19.6 7.9 36 8.6 SE 20 32 11 17 1018.7 1015.6 0.0
15/06:00am 23.6 19.7 8.5 38 8.2 SE 19 28 10 15 1018.3 1015.2 0.0
15/05:30am 23.8 19.9 8.6 38 8.3 SE 19 28 10 15 1017.9 1014.8 0.0
15/05:00am 24.1 20.6 8.9 38 8.4 SE 17 24 9 13 1017.7 1014.5 0.0
15/04:30am 24.4 20.5 8.8 37 8.6 SE 19 26 10 14 1017.4 1014.2 0.0
15/04:00am 24.7 21.3 9.0 37 8.7 SE 17 24 9 13 1017.3 1014.1 0.0
15/03:30am 25.2 21.4 9.1 36 8.9 SE 19 26 10 14 1017.0 1013.8 0.0
15/03:00am 25.6 22.3 9.4 36 9.1 SE 17 24 9 13 1016.9 1013.7 0.0
15/02:30am 26.0 22.4 9.8 36 9.1 SE 19 24 10 13 1017.0 1013.8 0.0
15/02:00am 26.4 22.7 10.1 36 9.3 SE 20 33 11 18 1017.0 1013.8 0.0
15/01:30am 26.9 23.5 10.6 36 9.4 SE 19 26 10 14 1016.8 1013.6 0.0
15/01:00am 27.6 23.7 10.8 35 9.7 SE 22 30 12 16 1016.9 1013.7 0.0
15/12:30am 27.8 23.5 10.9 35 9.8 SE 24 35 13 19 1016.8 1013.6 0.0
15/12:00am 28.4 23.8 11.0 34 10.1 ESE 26 37 14 20 1016.6 1013.5 0.0
 
Date/Time
CST
Temp
°C
App
Temp
°C
Dew
Point
°C
Rel
Hum
%
Delta-T
°C
Wind Press
QNH
hPa
Press
MSL
hPa
Rain since
9am
mm
Dir  Spd
km/h
Gust
km/h
Spd
kts
Gust
kts
14/11:30pm 28.5 24.7 11.1 34 10.1 SE 22 32 12 17 1016.4 1013.3 0.0
14/11:00pm 28.7 24.2 11.3 34 10.2 SE 26 37 14 20 1016.3 1013.2 0.0
14/10:30pm 29.2 25.1 11.3 33 10.5 SE 24 35 13 19 1016.2 1013.1 0.0
14/10:00pm 29.5 25.3 11.1 32 10.8 SE 24 35 13 19 1015.7 1012.5 0.0
14/09:30pm 29.9 25.6 10.9 31 11.1 SE 24 37 13 20 1015.3 1012.1 0.0
14/09:00pm 30.4 26.7 11.4 31 11.2 SE 22 32 12 17 1014.8 1011.6 0.0
14/08:30pm 31.0 27.1 10.9 29 11.8 SE 22 35 12 19 1014.1 1011.0 0.0
14/08:00pm 31.5 28.0 10.8 28 12.2 SE 20 32 11 17 1013.6 1010.4 0.0
14/07:30pm 32.2 28.7 10.8 27 12.6 ESE 20 30 11 16 1013.2 1010.0 0.0
14/07:00pm 33.3 29.1 11.2 26 13.2 ESE 24 33 13 18 1012.8 1009.6 0.0
14/06:30pm 34.2 30.6 10.7 24 14.0 ESE 20 30 11 16 1012.3 1009.2 0.0
14/06:00pm 34.7 31.3 10.5 23 14.4 SE 19 33 10 18 1012.2 1009.1 0.0
14/05:30pm 35.0 30.7 10.8 23 14.5 ESE 24 32 13 17 1012.1 1008.9 0.0
14/05:00pm 34.7 31.9 11.2 24 14.1 ESE 17 22 9 12 1011.9 1008.7 0.0
14/04:30pm 34.4 31.6 11.5 25 13.8 ENE 17 28 9 15 1011.9 1008.7 0.0
14/04:00pm 35.4 32.0 10.4 22 14.9 E 19 32 10 17 1011.9 1008.7 0.0
14/03:30pm 35.0 32.8 10.8 23 14.5 ESE 13 20 7 11 1012.1 1008.9 0.0
14/03:00pm 35.9 33.4 10.9 22 15.0 ENE 15 33 8 18 1012.2 1009.1 0.0
14/02:30pm 34.4 31.1 10.9 24 14.0 SSE 19 37 10 20 1012.5 1009.3 0.0
14/02:00pm 34.5 32.7 12.2 26 13.6 E 13 24 7 13 1012.9 1009.7 0.0
14/01:30pm 33.7 31.4 10.3 24 13.8 E 13 26 7 14 1013.4 1010.2 0.0
14/01:00pm 33.8 32.2 13.8 30 12.4 E 15 32 8 17 1013.7 1010.5 0.0
14/12:30pm 32.5 30.3 13.2 31 11.8 E 17 32 9 17 1014.2 1011.1 0.0
14/12:00pm 31.7 29.2 13.5 33 11.2 E 19 32 10 17 1014.8 1011.6 0.0
14/11:30am 31.5 29.1 13.7 33 10.9 ESE 19 32 10 17 1015.1 1011.9 0.0
14/11:00am 30.5 28.2 14.2 37 10.1 E 19 33 10 18 1015.4 1012.2 0.0
14/10:30am 29.6 26.5 13.4 37 9.8 ESE 22 35 12 19 1015.7 1012.5 0.0
14/10:00am 29.6 26.6 13.8 38 9.7 ESE 22 30 12 16 1015.8 1012.6 0.0
14/09:30am 27.5 24.7 13.1 41 8.6 SE 20 32 11 17 1015.9 1012.8 0.0
14/09:00am 27.0 24.0 12.6 41 8.5 SE 20 30 11 16 1016.1 1013.0 0.0
14/08:30am 25.3 21.4 12.2 44 7.7 SE 24 33 13 18 1016.1 1013.0 0.0
14/08:00am 24.2 20.2 11.9 46 7.1 SSE 24 33 13 18 1015.9 1012.8 0.0
14/07:30am 23.2 20.0 11.9 49 6.5 SSE 20 30 11 16 1015.7 1012.5 0.0
14/07:00am 21.7 18.5 12.0 54 5.6 S 20 28 11 15 1015.7 1012.5 0.0
14/06:30am 20.3 18.1 12.0 59 4.7 S 15 19 8 10 1015.6 1012.4 0.0
14/06:00am 19.6 17.7 11.9 61 4.4 S 13 15 7 8 1015.2 1012.0 0.0
14/05:30am 19.9 18.4 11.9 60 4.5 S 11 17 6 9 1014.8 1011.6 0.0
14/05:00am 20.4 18.5 11.9 58 4.8 S 13 15 7 8 1014.4 1011.3 0.0
14/04:30am 21.1 19.3 12.0 56 5.2 S 13 19 7 10 1014.2 1011.1 0.0
14/04:00am 21.2 19.1 12.3 57 5.1 S 15 20 8 11 1014.0 1010.8 0.0
14/03:30am 21.4 18.9 12.3 56 5.2 S 17 20 9 11 1013.8 1010.6 0.0
14/03:00am 21.7 19.2 12.3 55 5.4 S 17 20 9 11 1013.6 1010.4 0.0
14/02:30am 22.3 19.4 12.3 53 5.8 S 19 24 10 13 1013.6 1010.4 0.0
14/02:00am 22.8 19.8 12.1 51 6.2 S 19 24 10 13 1013.7 1010.5 0.0
14/01:30am 23.1 19.9 11.8 49 6.5 S 20 26 11 14 1013.8 1010.6 0.0
14/01:00am 23.2 20.6 11.9 49 6.5 S 17 22 9 12 1013.9 1010.7 0.0
14/12:30am 23.4 21.2 12.1 49 6.6 S 15 19 8 10 1014.1 1011.0 0.0
14/12:00am 23.5 21.9 12.8 51 6.3 S 13 19 7 10 1014.1 1011.0 0.0
 
Date/Time
CST
Temp
°C
App
Temp
°C
Dew
Point
°C
Rel
Hum
%
Delta-T
°C
Wind Press
QNH
hPa
Press
MSL
hPa
Rain since
9am
mm
Dir  Spd
km/h
Gust
km/h
Spd
kts
Gust
kts
13/11:30pm 23.9 21.9 12.8 49 6.5 S 15 19 8 10 1013.9 1010.7 0.0
13/11:00pm 24.3 22.7 12.9 49 6.7 S 13 19 7 10 1014.0 1010.8 0.0
13/10:30pm 24.9 22.9 12.8 47 7.1 S 15 22 8 12 1013.8 1010.6 0.0
13/10:00pm 25.7 23.0 12.9 45 7.6 S 19 28 10 15 1013.5 1010.3 0.0
13/09:30pm 26.1 23.5 13.2 44 7.7 SSW 19 30 10 16 1013.0 1009.8 0.0
13/09:00pm 26.6 23.8 13.3 43 8.0 SSW 20 28 11 15 1012.6 1009.4 0.0
13/08:30pm 27.2 24.4 13.2 42 8.4 SSW 20 26 11 14 1012.0 1008.8 0.0
13/08:00pm 27.8 24.8 12.6 39 9.1 SSW 20 30 11 16 1011.6 1008.4 0.0
13/07:30pm 28.4 25.4 12.7 38 9.4 SSW 20 28 11 15 1011.2 1008.0 0.0
13/07:00pm 29.2 25.6 13.0 37 9.8 SSW 24 35 13 19 1010.7 1007.5 0.0
13/06:30pm 30.4 26.8 13.2 35 10.5 SSW 24 33 13 18 1010.1 1006.9 0.0
13/06:00pm 31.0 27.9 13.3 34 10.8 SW 22 33 12 18 1009.7 1006.5 0.0
13/05:30pm 31.9 27.6 13.2 32 11.5 SSW 28 37 15 20 1009.4 1006.2 0.0
13/05:00pm 32.3 27.9 13.0 31 11.8 SW 28 43 15 23 1009.2 1006.0 0.0
13/04:30pm 33.3 29.3 12.9 29 12.5 SSW 26 37 14 20 1009.1 1005.9 0.0
13/04:00pm 34.3 30.4 13.2 28 13.0 S 26 35 14 19 1009.1 1005.9 0.0
13/03:30pm 34.3 31.1 13.2 28 13.0 SSW 22 39 12 21 1009.1 1005.9 0.0
13/03:00pm 34.4 31.0 13.8 29 12.8 SSW 24 35 13 19 1009.2 1006.0 0.0

Other Formats:

Comma delimited format used in spreadsheet applications
http://www.bom.gov.au/fwo/IDD60801/IDD60801.94462.axf

JavaScript Object Notation format (JSON) in row-major order
http://www.bom.gov.au/fwo/IDD60801/IDD60801.94462.json